Time;durP1;ratioP1;P1;durP2;ratioP2;P2;SDS_P1;SDS_P2;PMS_P1;PMS_P2;Temp;Humidity;BMP_temperature;BMP_pressure;BME280_temperature;BME280_humidity;BME280_pressure;Samples;Min_cycle;Max_cycle;Signal;HPM_P1;HPM_P2
2024/01/31 00:00:08;;;;;;;4.45;1.05;;;;;;;4.59;100.00;103221.63;1052276;28;20297;-49
2024/01/31 00:00:41;;;;;;;2.45;1.10;;;;;;;4.63;100.00;103215.13;1051829;28;20404;-49
2024/01/31 00:01:17;;;;;;;5.47;1.23;;;;;;;4.62;100.00;103221.38;1052802;28;20297;-49
2024/01/31 00:01:49;;;;;;;8.60;1.88;;;;;;;4.67;100.00;103221.03;1052278;28;20289;-47
2024/01/31 00:02:22;;;;;;;7.10;1.58;;;;;;;4.62;100.00;103221.38;1052813;28;20310;-47
2024/01/31 00:02:54;;;;;;;2.33;1.05;;;;;;;4.57;100.00;103217.41;1052847;28;20350;-49
2024/01/31 00:03:25;;;;;;;5.45;1.00;;;;;;;4.55;100.00;103225.47;1052354;28;20334;-47
2024/01/31 00:03:57;;;;;;;2.55;1.70;;;;;;;4.53;100.00;103222.09;1052328;28;20318;-47
2024/01/31 00:04:29;;;;;;;5.03;1.38;;;;;;;4.58;100.00;103219.94;1049383;28;20301;-47
2024/01/31 00:05:01;;;;;;;5.57;1.55;;;;;;;4.56;100.00;103221.84;1050863;28;20380;-49
2024/01/31 00:05:32;;;;;;;5.10;1.35;;;;;;;4.54;100.00;103226.41;1051115;28;20305;-48
2024/01/31 00:06:05;;;;;;;5.10;1.42;;;;;;;4.55;100.00;103220.19;1051926;28;20999;-50
2024/01/31 00:06:36;;;;;;;7.90;1.73;;;;;;;4.53;100.00;103222.09;1050875;28;20298;-50
2024/01/31 00:07:08;;;;;;;4.88;1.80;;;;;;;4.49;100.00;103217.19;1052387;28;20663;-49
2024/01/31 00:07:41;;;;;;;3.55;1.05;;;;;;;4.47;100.00;103219.09;1052388;28;20304;-49
2024/01/31 00:08:13;;;;;;;4.38;1.30;;;;;;;4.44;100.00;103214.91;1052375;28;20286;-50
2024/01/31 00:08:44;;;;;;;7.03;1.52;;;;;;;4.45;100.00;103221.84;1047715;28;20302;-48
2024/01/31 00:09:16;;;;;;;6.00;1.83;;;;;;;4.47;100.00;103219.94;1047563;28;20330;-48
2024/01/31 00:09:48;;;;;;;2.58;0.93;;;;;;;4.48;100.00;103218.97;1041022;28;20502;-49
2024/01/31 00:10:19;;;;;;;5.13;1.33;;;;;;;4.44;100.00;103228.09;1043800;28;20297;-51
2024/01/31 00:10:51;;;;;;;4.63;1.08;;;;;;;4.42;100.00;103226.53;1047181;28;20293;-51
2024/01/31 00:11:28;;;;;;;4.15;2.22;;;;;;;4.44;100.00;103225.44;1047370;28;20291;-49
2024/01/31 00:12:00;;;;;;;5.45;1.30;;;;;;;4.41;100.00;103222.22;1047455;28;20634;-48
2024/01/31 00:12:32;;;;;;;3.63;1.17;;;;;;;4.40;100.00;103231.94;1047181;28;20317;-49
2024/01/31 00:13:04;;;;;;;6.75;1.17;;;;;;;4.44;100.00;103225.44;1048388;28;20316;-47
2024/01/31 00:13:35;;;;;;;3.92;0.95;;;;;;;4.43;100.00;103229.06;1051995;28;20294;-49
2024/01/31 00:14:08;;;;;;;4.18;1.38;;;;;;;4.50;100.00;103227.63;1049936;28;20298;-49
2024/01/31 00:14:39;;;;;;;4.82;1.77;;;;;;;4.50;100.00;103230.25;1051499;28;20303;-50
2024/01/31 00:15:13;;;;;;;2.17;1.13;;;;;;;4.54;100.00;103221.13;1051681;28;20389;-48
2024/01/31 00:15:45;;;;;;;8.25;1.35;;;;;;;4.50;100.00;103222.34;1052021;28;20365;-50
2024/01/31 00:16:17;;;;;;;4.53;1.65;;;;;;;4.47;100.00;103233.13;1051925;28;20332;-48
2024/01/31 00:16:48;;;;;;;8.45;1.65;;;;;;;4.47;100.00;103227.00;1051817;28;20298;-52
2024/01/31 00:17:20;;;;;;;6.18;2.33;;;;;;;4.50;100.00;103227.63;1051551;28;20362;-49
2024/01/31 00:17:54;;;;;;;4.65;1.30;;;;;;;4.54;100.00;103223.78;1051969;28;21919;-51
2024/01/31 00:18:26;;;;;;;3.40;0.93;;;;;;;4.55;100.00;103230.72;1051595;28;20316;-49
2024/01/31 00:18:58;;;;;;;6.38;1.30;;;;;;;4.57;100.00;103228.81;1051992;28;20403;-49
2024/01/31 00:19:30;;;;;;;4.13;1.23;;;;;;;4.60;100.00;103230.38;1051663;28;20290;-50
2024/01/31 00:20:02;;;;;;;3.55;0.95;;;;;;;4.56;100.00;103227.13;1052383;28;20324;-49
2024/01/31 00:20:34;;;;;;;3.22;0.80;;;;;;;4.42;100.00;103229.16;1045287;28;20738;-49
2024/01/31 00:21:05;;;;;;;2.25;0.93;;;;;;;4.55;100.00;103222.81;1047554;28;20291;-51
2024/01/31 00:21:38;;;;;;;4.30;1.27;;;;;;;4.47;100.00;103227.84;1047291;28;20810;-50
2024/01/31 00:22:10;;;;;;;6.00;1.60;;;;;;;4.50;100.00;103227.63;1047940;28;20318;-49
2024/01/31 00:22:41;;;;;;;5.13;1.77;;;;;;;4.49;100.00;103231.22;1046983;28;20831;-50
2024/01/31 00:23:13;;;;;;;7.97;1.48;;;;;;;4.52;100.00;103228.34;1047460;28;20291;-50
2024/01/31 00:23:45;;;;;;;3.30;0.90;;;;;;;4.46;100.00;103228.81;1043850;28;20303;-49
2024/01/31 00:24:17;;;;;;;2.42;1.00;;;;;;;4.45;100.00;103234.22;1039659;28;20631;-50
2024/01/31 00:24:49;;;;;;;5.95;2.08;;;;;;;4.42;100.00;103231.81;1043562;28;20382;-49
2024/01/31 00:25:21;;;;;;;3.33;1.63;;;;;;;4.44;100.00;103243.09;1041518;28;20434;-48
2024/01/31 00:25:53;;;;;;;7.35;1.25;;;;;;;4.41;100.00;103246.81;1044101;28;20299;-49
2024/01/31 00:26:25;;;;;;;6.47;1.30;;;;;;;4.43;100.00;103242.25;1047985;28;20299;-49
2024/01/31 00:26:57;;;;;;;2.80;1.13;;;;;;;4.41;100.00;103243.31;1047685;28;20807;-48
2024/01/31 00:27:28;;;;;;;3.33;0.95;;;;;;;4.37;100.00;103237.41;1047946;28;20356;-50
2024/01/31 00:28:00;;;;;;;6.75;1.38;;;;;;;4.36;100.00;103243.66;1047996;28;20764;-50
2024/01/31 00:28:31;;;;;;;3.78;1.02;;;;;;;4.34;100.00;103238.47;1047845;28;21188;-49
2024/01/31 00:29:03;;;;;;;1.60;1.08;;;;;;;4.37;100.00;103247.13;1048345;28;20306;-50
2024/01/31 00:29:35;;;;;;;2.30;1.20;;;;;;;4.32;100.00;103242.19;1047999;28;20630;-47
2024/01/31 00:30:10;;;;;;;5.55;1.40;;;;;;;4.40;100.00;103239.84;1046334;28;20323;-48
2024/01/31 00:30:42;;;;;;;3.45;1.00;;;;;;;4.39;100.00;103242.59;1048345;28;20293;-49
2024/01/31 00:31:14;;;;;;;3.03;1.25;;;;;;;4.41;100.00;103238.03;1047582;28;20314;-50
2024/01/31 00:31:45;;;;;;;6.05;1.38;;;;;;;4.38;100.00;103247.00;1047731;28;20736;-48
2024/01/31 00:32:17;;;;;;;6.05;1.00;;;;;;;4.43;100.00;103242.25;1048166;28;20302;-47
2024/01/31 00:32:48;;;;;;;6.57;1.45;;;;;;;4.39;100.00;103240.81;1047846;28;20290;-48
2024/01/31 00:33:20;;;;;;;3.08;1.52;;;;;;;4.41;100.00;103241.53;1047969;28;20310;-50
2024/01/31 00:33:52;;;;;;;4.22;0.93;;;;;;;4.34;100.00;103242.91;1047830;28;20306;-48
2024/01/31 00:34:24;;;;;;;2.75;1.65;;;;;;;4.41;100.00;103245.97;1047946;28;20365;-48
2024/01/31 00:34:55;;;;;;;3.35;0.95;;;;;;;4.46;100.00;103249.94;1047902;28;20778;-49
2024/01/31 00:35:27;;;;;;;2.17;1.02;;;;;;;4.43;100.00;103246.69;1048454;28;20330;-49
2024/01/31 00:35:59;;;;;;;2.40;0.82;;;;;;;4.44;100.00;103245.72;1047849;28;20313;-51
2024/01/31 00:36:31;;;;;;;9.10;1.40;;;;;;;4.40;100.00;103245.13;1047677;28;20298;-49
2024/01/31 00:37:03;;;;;;;1.60;0.85;;;;;;;4.33;100.00;103249.16;1047932;28;20295;-52
2024/01/31 00:37:34;;;;;;;4.18;1.05;;;;;;;4.38;100.00;103254.91;1047766;28;20298;-49
2024/01/31 00:38:06;;;;;;;3.58;0.95;;;;;;;4.33;100.00;103254.44;1047898;28;20881;-50
2024/01/31 00:38:38;;;;;;;6.10;1.20;;;;;;;4.34;100.00;103253.47;1048045;28;20337;-49
2024/01/31 00:39:10;;;;;;;5.45;1.50;;;;;;;4.30;100.00;103257.31;1048065;28;20664;-49
2024/01/31 00:39:42;;;;;;;4.72;1.17;;;;;;;4.32;100.00;103250.94;1048117;28;20294;-49
2024/01/31 00:40:14;;;;;;;1.95;0.93;;;;;;;4.38;100.00;103254.09;1047128;28;20294;-51
2024/01/31 00:40:46;;;;;;;2.45;0.95;;;;;;;4.43;100.00;103251.97;1048172;28;20291;-50
2024/01/31 00:41:18;;;;;;;4.38;1.73;;;;;;;4.33;100.00;103252.63;1047745;28;20295;-50
2024/01/31 00:41:50;;;;;;;5.05;0.90;;;;;;;4.29;100.00;103255.63;1048103;28;20656;-51
2024/01/31 00:42:22;;;;;;;2.65;0.85;;;;;;;4.31;100.00;103259.00;1047570;28;20302;-51
2024/01/31 00:42:53;;;;;;;3.72;1.10;;;;;;;4.35;100.00;103260.44;1047904;28;20307;-48
2024/01/31 00:43:25;;;;;;;2.97;1.05;;;;;;;4.39;100.00;103266.34;1043425;28;20291;-50
2024/01/31 00:43:57;;;;;;;2.65;1.05;;;;;;;4.43;100.00;103263.34;1043222;28;20314;-50
2024/01/31 00:44:29;;;;;;;3.60;1.38;;;;;;;4.37;100.00;103263.78;1043298;28;20789;-49
2024/01/31 00:45:00;;;;;;;5.38;0.80;;;;;;;4.33;100.00;103262.34;1044332;28;20793;-49
2024/01/31 00:45:32;;;;;;;4.07;1.25;;;;;;;4.43;100.00;103263.34;1045917;28;20279;-50
2024/01/31 00:46:05;;;;;;;4.50;1.50;;;;;;;4.41;100.00;103264.44;1047703;28;20302;-50
2024/01/31 00:46:41;;;;;;;3.17;0.77;;;;;;;4.42;100.00;103271.38;1047928;28;20302;-48
2024/01/31 00:47:13;;;;;;;4.20;1.52;;;;;;;4.40;100.00;103271.50;1047687;28;20785;-48
2024/01/31 00:47:45;;;;;;;1.67;1.10;;;;;;;4.39;100.00;103272.47;1047295;28;20338;-49
2024/01/31 00:48:17;;;;;;;1.58;1.13;;;;;;;4.39;100.00;103275.09;1048000;28;20303;-49
2024/01/31 00:48:49;;;;;;;2.72;0.82;;;;;;;4.37;100.00;103271.72;1047889;28;20302;-50
2024/01/31 00:49:21;;;;;;;4.38;1.20;;;;;;;4.35;100.00;103273.63;1047660;28;20294;-50
2024/01/31 00:49:57;;;;;;;7.97;1.77;;;;;;;4.32;100.00;103274.69;1048006;28;20293;-49
2024/01/31 00:50:29;;;;;;;4.47;2.28;;;;;;;4.34;100.00;103271.94;1047625;28;20377;-50
2024/01/31 00:51:01;;;;;;;2.08;1.25;;;;;;;4.26;100.00;103276.97;1048002;28;20298;-52
2024/01/31 00:51:32;;;;;;;6.40;1.65;;;;;;;4.25;100.00;103280.56;1047840;28;20812;-49
2024/01/31 00:52:05;;;;;;;10.07;2.35;;;;;;;4.21;100.00;103279.94;1047825;28;20297;-51
2024/01/31 00:52:36;;;;;;;5.63;1.60;;;;;;;4.24;100.00;103273.59;1048271;28;20324;-49
2024/01/31 00:53:08;;;;;;;2.08;1.00;;;;;;;4.26;100.00;103275.16;1046043;28;20661;-49
2024/01/31 00:53:40;;;;;;;8.32;1.45;;;;;;;4.22;100.00;103280.78;1047809;28;20307;-49
2024/01/31 00:54:12;;;;;;;4.85;1.67;;;;;;;4.26;100.00;103277.81;1048093;28;20295;-51
2024/01/31 00:54:44;;;;;;;4.68;1.10;;;;;;;4.25;100.00;103275.28;1047892;28;20295;-50
2024/01/31 00:55:18;;;;;;;5.82;1.00;;;;;;;4.18;100.00;103277.53;1047686;28;20294;-49
2024/01/31 00:55:50;;;;;;;1.33;0.98;;;;;;;4.24;100.00;103278.88;1047763;28;20298;-50
2024/01/31 00:56:22;;;;;;;7.75;1.23;;;;;;;4.24;100.00;103273.59;1047702;28;20336;-52
2024/01/31 00:56:53;;;;;;;6.15;1.73;;;;;;;4.19;100.00;103286.31;1047866;28;20824;-49
2024/01/31 00:57:25;;;;;;;2.70;0.80;;;;;;;4.15;100.00;103284.84;1047747;28;20305;-50
2024/01/31 00:57:56;;;;;;;3.03;1.10;;;;;;;4.23;100.00;103283.31;1048244;28;20313;-49
2024/01/31 00:58:28;;;;;;;5.95;1.63;;;;;;;4.26;100.00;103284.88;1045585;28;20312;-52
2024/01/31 00:59:00;;;;;;;3.10;1.00;;;;;;;4.31;100.00;103285.38;1048071;28;20326;-48
2024/01/31 00:59:32;;;;;;;6.75;1.20;;;;;;;4.26;100.00;103287.53;1047629;28;20290;-49
2024/01/31 01:00:05;;;;;;;3.08;1.00;;;;;;;4.34;100.00;103285.13;1047839;28;20336;-49
2024/01/31 01:00:36;;;;;;;4.40;1.45;;;;;;;4.34;100.00;103285.13;1048006;28;20307;-48
2024/01/31 01:01:08;;;;;;;2.30;0.80;;;;;;;4.26;100.00;103287.53;1047673;28;21137;-49
2024/01/31 01:01:40;;;;;;;5.22;1.42;;;;;;;4.27;100.00;103291.84;1047070;28;20619;-49
2024/01/31 01:02:11;;;;;;;5.20;1.15;;;;;;;4.31;100.00;103288.00;1048052;28;20793;-49
2024/01/31 01:02:43;;;;;;;6.32;0.98;;;;;;;4.32;100.00;103289.69;1048117;28;20287;-51
2024/01/31 01:03:15;;;;;;;5.82;1.42;;;;;;;4.37;100.00;103281.41;1048231;28;20365;-46
2024/01/31 01:03:46;;;;;;;5.32;1.13;;;;;;;4.33;100.00;103289.56;1047742;28;20823;-48
2024/01/31 01:04:18;;;;;;;2.08;0.98;;;;;;;4.31;100.00;103285.38;1047407;28;20664;-49
2024/01/31 01:04:52;;;;;;;3.05;1.00;;;;;;;4.31;100.00;103290.66;1048016;28;20290;-46
2024/01/31 01:05:24;;;;;;;2.33;1.25;;;;;;;4.35;100.00;103286.81;1047947;28;20294;-46
2024/01/31 01:05:55;;;;;;;4.32;1.10;;;;;;;4.37;100.00;103282.25;1047752;28;20313;-47
2024/01/31 01:06:27;;;;;;;4.45;1.20;;;;;;;4.35;100.00;103287.66;1048144;28;20294;-46
2024/01/31 01:06:59;;;;;;;2.13;0.88;;;;;;;4.39;100.00;103288.28;1043975;28;20322;-46
2024/01/31 01:07:31;;;;;;;6.35;1.35;;;;;;;4.40;100.00;103289.97;1047572;28;20298;-47
2024/01/31 01:08:02;;;;;;;3.30;1.20;;;;;;;4.45;100.00;103289.63;1047871;28;20286;-50
2024/01/31 01:08:34;;;;;;;3.42;1.40;;;;;;;4.40;100.00;103278.59;1045619;28;20837;-46
2024/01/31 01:09:06;;;;;;;4.68;1.33;;;;;;;4.44;100.00;103283.50;1047350;28;20299;-50
2024/01/31 01:09:37;;;;;;;6.70;1.50;;;;;;;4.36;100.00;103288.50;1042976;28;20299;-49
2024/01/31 01:10:11;;;;;;;7.88;1.50;;;;;;;4.41;100.00;103286.38;1043149;28;20300;-49
2024/01/31 01:10:43;;;;;;;7.35;1.25;;;;;;;4.30;100.00;103286.31;1042648;28;20303;-49
2024/01/31 01:11:15;;;;;;;4.50;0.88;;;;;;;4.33;100.00;103288.72;1043958;28;20346;-49
2024/01/31 01:11:46;;;;;;;4.03;0.95;;;;;;;4.41;100.00;103286.38;1047537;28;20805;-48
2024/01/31 01:12:18;;;;;;;3.20;1.35;;;;;;;4.32;100.00;103281.78;1047316;28;20300;-47
2024/01/31 01:12:49;;;;;;;4.95;1.45;;;;;;;4.41;100.00;103285.53;1047923;28;20301;-50
2024/01/31 01:13:21;;;;;;;5.25;1.45;;;;;;;4.43;100.00;103295.03;1046172;28;20766;-48
2024/01/31 01:13:53;;;;;;;3.28;1.10;;;;;;;4.40;100.00;103289.97;1047230;28;20363;-48
2024/01/31 01:14:24;;;;;;;4.75;1.27;;;;;;;4.40;100.00;103292.63;1043025;28;20303;-49
2024/01/31 01:14:56;;;;;;;2.42;1.20;;;;;;;4.45;100.00;103298.38;1042713;28;20337;-49
2024/01/31 01:15:43;;;;;;;5.72;1.15;;;;;;;4.44;100.00;103301.97;1043046;28;20431;-48
2024/01/31 01:16:15;;;;;;;3.05;1.08;;;;;;;4.38;100.00;103301.56;1039961;28;20354;-50
2024/01/31 01:16:47;;;;;;;3.22;1.40;;;;;;;4.27;100.00;103294.47;1038822;28;20292;-46
2024/01/31 01:17:18;;;;;;;5.20;1.35;;;;;;;4.24;100.00;103303.47;1039160;28;20296;-47
2024/01/31 01:17:50;;;;;;;6.13;1.20;;;;;;;4.31;100.00;103302.03;1039265;28;20320;-47
2024/01/31 01:18:21;;;;;;;2.13;0.90;;;;;;;4.35;100.00;103305.28;1042521;28;20366;-49
2024/01/31 01:18:53;;;;;;;6.75;1.45;;;;;;;4.21;100.00;103305.50;1047514;28;20355;-49
2024/01/31 01:19:25;;;;;;;5.20;1.13;;;;;;;4.23;100.00;103306.22;1047077;28;20314;-46
2024/01/31 01:19:56;;;;;;;3.92;1.55;;;;;;;4.21;100.00;103310.75;1047806;28;20379;-46
2024/01/31 01:20:28;;;;;;;2.85;1.88;;;;;;;4.13;100.00;103303.44;1047342;28;20850;-48
2024/01/31 01:21:00;;;;;;;3.78;1.50;;;;;;;4.26;100.00;103306.81;1047468;28;20340;-47
2024/01/31 01:21:32;;;;;;;3.20;1.73;;;;;;;4.32;100.00;103297.59;1047905;28;20308;-46
2024/01/31 01:22:04;;;;;;;7.72;1.48;;;;;;;4.33;100.00;103299.28;1047717;28;20297;-49
2024/01/31 01:22:36;;;;;;;2.42;1.17;;;;;;;4.31;100.00;103309.13;1045184;28;20287;-47
2024/01/31 01:23:08;;;;;;;7.90;1.50;;;;;;;4.31;100.00;103301.19;1047646;28;20785;-49
2024/01/31 01:23:40;;;;;;;5.28;2.25;;;;;;;4.38;100.00;103307.69;1047629;28;20702;-49
2024/01/31 01:24:12;;;;;;;3.25;1.00;;;;;;;4.31;100.00;103303.84;1051502;28;20358;-50
2024/01/31 01:24:43;;;;;;;8.32;2.08;;;;;;;4.36;100.00;103309.59;1051639;28;20352;-49
2024/01/31 01:25:16;;;;;;;1.60;1.23;;;;;;;4.39;100.00;103309.41;1051671;28;20289;-47
2024/01/31 01:25:47;;;;;;;4.05;1.25;;;;;;;4.37;100.00;103297.25;1047041;28;20326;-49
2024/01/31 01:26:19;;;;;;;6.15;1.15;;;;;;;4.36;100.00;103299.06;1047960;28;20780;-49
2024/01/31 01:26:51;;;;;;;2.97;1.52;;;;;;;4.28;100.00;103306.72;1047594;28;20291;-46
2024/01/31 01:27:22;;;;;;;7.45;1.42;;;;;;;4.35;100.00;103300.00;1047962;28;20291;-48
2024/01/31 01:27:54;;;;;;;3.53;0.98;;;;;;;4.41;100.00;103309.28;1052025;28;20293;-49
2024/01/31 01:28:26;;;;;;;4.30;1.38;;;;;;;4.35;100.00;103302.66;1051649;28;20309;-47
2024/01/31 01:28:57;;;;;;;2.45;0.70;;;;;;;4.37;100.00;103300.72;1051896;28;20829;-49
2024/01/31 01:29:30;;;;;;;2.05;0.90;;;;;;;4.42;100.00;103303.91;1052258;28;20363;-50
2024/01/31 01:30:02;;;;;;;5.93;1.20;;;;;;;4.36;100.00;103299.06;1051909;28;20286;-51
2024/01/31 01:30:33;;;;;;;4.85;1.58;;;;;;;4.27;100.00;103310.31;1051892;28;20319;-49
2024/01/31 01:31:05;;;;;;;13.77;1.30;;;;;;;4.29;100.00;103300.47;1052357;28;20289;-53
2024/01/31 01:31:37;;;;;;;6.30;1.13;;;;;;;4.25;100.00;103301.66;1051807;28;20865;-49
2024/01/31 01:32:09;;;;;;;2.65;1.25;;;;;;;4.32;100.00;103298.44;1052178;28;20290;-50
2024/01/31 01:32:41;;;;;;;4.88;1.10;;;;;;;4.40;100.00;103300.53;1051951;28;20308;-52
2024/01/31 01:33:12;;;;;;;2.38;1.33;;;;;;;4.34;100.00;103295.69;1051174;28;20336;-49
2024/01/31 01:33:44;;;;;;;3.80;1.20;;;;;;;4.32;100.00;103300.25;1051978;28;20298;-49
2024/01/31 01:34:16;;;;;;;1.20;0.68;;;;;;;4.34;100.00;103303.59;1051937;28;20455;-51
2024/01/31 01:34:48;;;;;;;4.82;1.33;;;;;;;4.28;100.00;103304.91;1051741;28;20289;-51
2024/01/31 01:35:19;;;;;;;2.15;0.77;;;;;;;4.28;100.00;103304.06;1052565;28;20290;-50
2024/01/31 01:35:51;;;;;;;1.50;1.02;;;;;;;4.27;100.00;103310.31;1050224;28;20301;-51
2024/01/31 01:36:23;;;;;;;2.97;1.35;;;;;;;4.24;100.00;103306.09;1051893;28;20297;-49
2024/01/31 01:36:54;;;;;;;2.78;0.85;;;;;;;4.24;100.00;103302.63;1052043;28;20290;-49
2024/01/31 01:37:26;;;;;;;3.47;1.45;;;;;;;4.26;100.00;103309.47;1051453;28;20310;-47
2024/01/31 01:37:58;;;;;;;3.33;1.10;;;;;;;4.18;100.00;103303.09;1052043;28;20656;-48
2024/01/31 01:38:29;;;;;;;8.98;2.80;;;;;;;4.20;100.00;103301.16;1051916;28;20312;-47
2024/01/31 01:39:01;;;;;;;4.53;1.50;;;;;;;4.21;100.00;103305.50;1051753;28;20776;-47
2024/01/31 01:39:34;;;;;;;4.88;1.38;;;;;;;4.24;100.00;103305.25;1052463;28;20639;-49
2024/01/31 01:40:08;;;;;;;2.95;1.02;;;;;;;4.20;100.00;103303.81;1052198;28;20305;-48
2024/01/31 01:40:45;;;;;;;7.00;1.27;;;;;;;4.14;100.00;103301.63;1052237;28;20298;-50
2024/01/31 01:41:17;;;;;;;6.30;1.77;;;;;;;4.19;100.00;103302.13;1051842;28;20845;-48
2024/01/31 01:41:49;;;;;;;4.53;1.10;;;;;;;4.13;100.00;103303.44;1051793;28;20847;-50
2024/01/31 01:42:21;;;;;;;6.15;1.35;;;;;;;4.23;100.00;103304.41;1052454;28;20338;-46
2024/01/31 01:42:53;;;;;;;6.25;1.30;;;;;;;4.23;100.00;103303.56;1052416;28;20301;-47
2024/01/31 01:43:24;;;;;;;4.18;1.48;;;;;;;4.24;100.00;103305.25;1051897;28;20393;-47
2024/01/31 01:43:56;;;;;;;3.92;1.10;;;;;;;4.27;100.00;103310.31;1051810;28;20806;-48
2024/01/31 01:44:33;;;;;;;3.63;0.80;;;;;;;4.31;100.00;103296.75;1051875;28;20294;-47
2024/01/31 01:45:05;;;;;;;5.10;1.35;;;;;;;4.31;100.00;103301.19;1051543;28;20297;-47
2024/01/31 01:45:36;;;;;;;5.80;1.00;;;;;;;4.26;100.00;103303.34;1051969;28;20298;-47
2024/01/31 01:46:14;;;;;;;3.30;1.27;;;;;;;4.23;100.00;103301.78;1051906;28;20302;-48
2024/01/31 01:46:46;;;;;;;8.07;1.73;;;;;;;4.22;100.00;103299.25;1047363;28;20291;-46
2024/01/31 01:47:18;;;;;;;5.70;1.45;;;;;;;4.23;100.00;103298.31;1043190;28;20306;-47
2024/01/31 01:47:52;;;;;;;1.75;0.98;;;;;;;4.15;100.00;103300.69;1042746;28;20857;-47
2024/01/31 01:48:24;;;;;;;4.40;0.70;;;;;;;4.13;100.00;103292.03;1044577;28;20347;-46
2024/01/31 01:48:56;;;;;;;3.17;1.23;;;;;;;4.21;100.00;103302.84;1043248;28;20746;-47
2024/01/31 01:49:29;;;;;;;5.55;1.60;;;;;;;4.20;100.00;103299.38;1040022;28;20300;-49
2024/01/31 01:50:03;;;;;;;4.85;2.15;;;;;;;4.17;100.00;103296.13;1035096;28;20304;-51
2024/01/31 01:50:34;;;;;;;2.05;1.25;;;;;;;4.09;100.00;103298.47;1035901;28;20380;-49
2024/01/31 01:51:06;;;;;;;3.90;1.13;;;;;;;4.14;100.00;103293.72;1040278;28;20646;-51
2024/01/31 01:51:38;;;;;;;4.68;1.20;;;;;;;4.23;100.00;103290.38;1038546;28;20292;-49
2024/01/31 01:52:11;;;;;;;5.68;1.10;;;;;;;4.21;100.00;103294.94;1047556;28;20295;-50
2024/01/31 01:52:43;;;;;;;4.55;1.25;;;;;;;4.26;100.00;103287.53;1043424;28;20684;-49
2024/01/31 01:53:14;;;;;;;5.95;1.73;;;;;;;4.28;100.00;103291.72;1044145;28;20299;-48
2024/01/31 01:53:47;;;;;;;4.07;1.27;;;;;;;4.18;100.00;103292.53;1047342;28;20381;-50
2024/01/31 01:54:22;;;;;;;3.40;1.10;;;;;;;4.30;100.00;103291.59;1049210;28;20668;-50
2024/01/31 01:54:54;;;;;;;2.53;1.27;;;;;;;4.33;100.00;103283.47;1051405;28;20294;-52
2024/01/31 01:55:26;;;;;;;5.97;2.10;;;;;;;4.38;100.00;103289.22;1047206;28;20330;-48
2024/01/31 01:55:58;;;;;;;3.20;1.67;;;;;;;4.40;100.00;103297.91;1047294;28;20707;-49
2024/01/31 01:56:30;;;;;;;0.95;0.90;;;;;;;4.32;100.00;103294.97;1047289;28;20313;-48
2024/01/31 01:57:02;;;;;;;3.13;0.88;;;;;;;4.31;100.00;103295.94;1043807;28;20299;-50
2024/01/31 01:57:36;;;;;;;6.22;1.20;;;;;;;4.28;100.00;103297.00;1038843;28;20319;-49
2024/01/31 01:58:08;;;;;;;5.63;2.13;;;;;;;4.27;100.00;103294.47;1034737;28;20936;-50
2024/01/31 01:58:41;;;;;;;1.77;1.20;;;;;;;4.37;100.00;103289.34;1032211;28;20301;-48
2024/01/31 01:59:13;;;;;;;4.03;1.02;;;;;;;4.38;100.00;103299.78;1037352;28;20371;-49
2024/01/31 01:59:45;;;;;;;7.75;1.10;;;;;;;4.44;100.00;103296.69;1044181;28;20299;-49
2024/01/31 02:00:18;;;;;;;3.30;1.30;;;;;;;4.49;100.00;103293.72;1046541;28;20295;-48
2024/01/31 02:00:50;;;;;;;3.05;1.60;;;;;;;4.33;100.00;103297.50;1051999;28;20309;-51
2024/01/31 02:01:22;;;;;;;6.53;1.63;;;;;;;4.30;100.00;103296.88;1047446;28;20803;-50
2024/01/31 02:01:54;;;;;;;4.38;1.33;;;;;;;4.12;100.00;103300.91;1043243;28;20330;-52
2024/01/31 02:02:27;;;;;;;4.28;1.08;;;;;;;4.18;100.00;103295.16;1043156;28;20291;-49
2024/01/31 02:03:00;;;;;;;6.80;1.42;;;;;;;4.22;100.00;103291.34;1043704;28;20299;-48
2024/01/31 02:03:32;;;;;;;3.92;1.50;;;;;;;4.19;100.00;103286.31;1048179;28;20310;-48
2024/01/31 02:04:05;;;;;;;1.70;1.00;;;;;;;4.17;100.00;103293.50;1051844;28;20294;-52
2024/01/31 02:04:37;;;;;;;3.67;1.73;;;;;;;4.25;100.00;103285.84;1051781;28;20388;-50
2024/01/31 02:05:08;;;;;;;3.60;1.65;;;;;;;4.22;100.00;103286.06;1051832;28;20732;-52
2024/01/31 02:05:43;;;;;;;4.63;1.42;;;;;;;4.22;100.00;103286.91;1052064;28;20297;-50
2024/01/31 02:06:15;;;;;;;2.95;1.05;;;;;;;4.21;100.00;103294.94;1047135;28;20811;-50
2024/01/31 02:06:47;;;;;;;4.38;1.13;;;;;;;4.21;100.00;103294.94;1047565;28;20306;-49
2024/01/31 02:07:24;;;;;;;7.30;1.70;;;;;;;4.30;100.00;103292.44;1043177;28;20302;-47
2024/01/31 02:07:56;;;;;;;5.70;1.15;;;;;;;4.19;100.00;103296.84;1043900;28;20331;-47
2024/01/31 02:08:28;;;;;;;3.67;1.88;;;;;;;4.28;100.00;103291.72;1047479;28;20295;-47
2024/01/31 02:09:01;;;;;;;5.53;1.10;;;;;;;4.27;100.00;103289.19;1044811;28;20374;-46
2024/01/31 02:09:32;;;;;;;2.47;1.33;;;;;;;4.32;100.00;103297.59;1044381;28;20809;-46
2024/01/31 02:10:05;;;;;;;5.13;1.33;;;;;;;4.31;100.00;103298.56;1046025;28;20318;-47
2024/01/31 02:10:36;;;;;;;5.28;1.23;;;;;;;4.27;100.00;103289.19;1047857;28;20369;-47
2024/01/31 02:11:08;;;;;;;5.30;1.17;;;;;;;4.27;100.00;103289.19;1051307;28;20306;-49
2024/01/31 02:11:40;;;;;;;5.20;1.23;;;;;;;4.10;100.00;103294.88;1049830;28;20396;-49
2024/01/31 02:12:12;;;;;;;5.65;1.52;;;;;;;4.01;100.00;103289.34;1051497;28;20313;-46
2024/01/31 02:12:44;;;;;;;4.55;1.13;;;;;;;4.17;100.00;103289.06;1051593;28;21601;-48
2024/01/31 02:13:15;;;;;;;3.63;1.75;;;;;;;4.14;100.00;103288.44;1051590;28;20727;-46
2024/01/31 02:13:47;;;;;;;3.55;1.48;;;;;;;4.08;100.00;103289.72;1047341;28;20293;-49
2024/01/31 02:14:19;;;;;;;5.38;0.90;;;;;;;4.08;100.00;103289.72;1047244;28;20384;-46
2024/01/31 02:14:52;;;;;;;3.75;1.50;;;;;;;4.20;100.00;103286.19;1046820;28;20385;-48
2024/01/31 02:15:24;;;;;;;12.65;2.08;;;;;;;4.26;100.00;103288.34;1048020;28;20351;-48
2024/01/31 02:15:56;;;;;;;3.47;1.33;;;;;;;4.26;100.00;103284.88;1051781;28;20301;-48
2024/01/31 02:16:28;;;;;;;2.00;0.90;;;;;;;4.29;100.00;103287.28;1051842;28;20329;-47
2024/01/31 02:17:00;;;;;;;3.00;1.40;;;;;;;4.29;100.00;103287.28;1051633;28;20514;-48
2024/01/31 02:17:33;;;;;;;6.47;1.48;;;;;;;4.37;100.00;103291.97;1051736;28;20501;-48
2024/01/31 02:18:05;;;;;;;2.30;1.25;;;;;;;4.24;100.00;103289.44;1047212;28;20295;-47
2024/01/31 02:18:36;;;;;;;5.53;1.67;;;;;;;4.20;100.00;103293.25;1046553;28;20291;-47
2024/01/31 02:19:08;;;;;;;2.55;1.20;;;;;;;4.15;100.00;103290.97;1047282;28;20295;-47
2024/01/31 02:19:40;;;;;;;3.55;1.83;;;;;;;4.25;100.00;103285.84;1047896;28;20298;-48
2024/01/31 02:20:15;;;;;;;7.47;1.15;;;;;;;4.32;100.00;103287.06;1051588;28;20306;-49
2024/01/31 02:20:48;;;;;;;2.25;1.00;;;;;;;4.30;100.00;103288.97;1047741;28;20291;-51
2024/01/31 02:21:22;;;;;;;2.00;1.33;;;;;;;4.26;100.00;103287.53;1047468;28;20295;-49
2024/01/31 02:21:55;;;;;;;5.05;0.90;;;;;;;4.26;100.00;103277.81;1047288;28;20652;-48
2024/01/31 02:22:27;;;;;;;3.60;1.67;;;;;;;4.14;100.00;103288.44;1047676;28;20287;-51
2024/01/31 02:22:58;;;;;;;2.40;1.10;;;;;;;4.23;100.00;103287.75;1047054;28;20384;-49
2024/01/31 02:23:30;;;;;;;2.95;1.27;;;;;;;4.16;100.00;103275.97;1043802;28;20341;-50
2024/01/31 02:24:02;;;;;;;4.28;1.17;;;;;;;4.22;100.00;103280.78;1050518;28;20301;-51
2024/01/31 02:24:33;;;;;;;7.30;1.75;;;;;;;4.12;100.00;103280.66;1051568;28;20710;-50
2024/01/31 02:25:11;;;;;;;7.20;1.55;;;;;;;3.98;100.00;103273.75;1051116;28;20309;-49
2024/01/31 02:25:44;;;;;;;4.03;1.02;;;;;;;4.07;100.00;103284.56;1051831;28;20386;-50
2024/01/31 02:26:16;;;;;;;4.18;1.15;;;;;;;4.07;100.00;103282.75;1051625;28;20302;-51
2024/01/31 02:26:48;;;;;;;2.88;1.63;;;;;;;4.04;100.00;103278.56;1051254;28;20305;-48
2024/01/31 02:27:20;;;;;;;7.15;1.48;;;;;;;4.08;100.00;103281.81;1051632;28;20296;-51
2024/01/31 02:27:52;;;;;;;3.17;0.90;;;;;;;4.15;100.00;103272.50;1051398;28;20290;-49
2024/01/31 02:28:24;;;;;;;3.83;1.20;;;;;;;4.17;100.00;103269.75;1052152;28;20398;-49
2024/01/31 02:28:55;;;;;;;8.65;1.88;;;;;;;4.08;100.00;103276.53;1051889;28;20298;-49
2024/01/31 02:29:27;;;;;;;3.75;1.30;;;;;;;4.13;100.00;103273.56;1051830;28;20305;-48